createdAt,value
2023-03-29T00:00:51.413Z,2.20
2023-03-29T00:03:18.017Z,2.65
2023-03-29T00:05:44.612Z,2.13
2023-03-29T00:08:14.241Z,2.30
2023-03-29T00:10:41.983Z,2.90
2023-03-29T00:13:08.421Z,2.47
2023-03-29T00:15:34.833Z,2.90
2023-03-29T00:18:01.256Z,2.53
2023-03-29T00:20:28.800Z,2.08
2023-03-29T00:22:55.667Z,2.78
2023-03-29T00:25:22.261Z,2.30
2023-03-29T00:27:48.892Z,2.08
2023-03-29T00:30:15.928Z,2.30
2023-03-29T00:32:42.701Z,2.00
2023-03-29T00:35:09.724Z,1.60
2023-03-29T00:37:36.276Z,1.90
2023-03-29T00:40:04.918Z,2.25
2023-03-29T00:42:31.401Z,2.20
2023-03-29T00:45:03.512Z,2.17
2023-03-29T00:47:39.697Z,1.60
2023-03-29T00:50:15.655Z,2.05
2023-03-29T00:52:44.011Z,1.73
2023-03-29T00:55:13.291Z,2.50
2023-03-29T00:57:40.475Z,1.70
2023-03-29T01:00:10.024Z,1.42
2023-03-29T01:02:39.538Z,1.58
2023-03-29T01:05:09.587Z,2.35
2023-03-29T01:07:41.592Z,1.67
2023-03-29T01:10:10.810Z,1.80
2023-03-29T01:12:40.491Z,2.05
2023-03-29T01:15:11.482Z,1.98
2023-03-29T01:17:40.470Z,1.63
2023-03-29T01:20:14.190Z,1.63
2023-03-29T01:23:00.734Z,1.73
2023-03-29T01:25:54.488Z,2.03
2023-03-29T01:28:22.860Z,2.08
2023-03-29T01:31:10.446Z,2.17
2023-03-29T01:33:58.696Z,1.20
2023-03-29T01:36:37.050Z,2.15
2023-03-29T01:39:06.936Z,1.60
2023-03-29T01:41:45.048Z,1.48
2023-03-29T01:44:15.235Z,1.48
2023-03-29T01:46:41.770Z,1.50
2023-03-29T01:49:14.024Z,1.70
2023-03-29T01:51:43.495Z,1.60
2023-03-29T01:54:17.408Z,1.77
2023-03-29T01:56:46.469Z,1.90
2023-03-29T01:59:15.393Z,1.95
2023-03-29T02:01:49.131Z,1.73
2023-03-29T02:04:18.072Z,1.77
2023-03-29T02:06:44.891Z,1.70
2023-03-29T02:09:12.565Z,1.60
2023-03-29T02:11:40.991Z,1.40
2023-03-29T02:14:07.424Z,1.77
2023-03-29T02:16:38.960Z,1.75
2023-03-29T02:19:07.609Z,1.50
2023-03-29T02:21:41.450Z,1.27
2023-03-29T02:24:11.163Z,1.47
2023-03-29T02:26:38.302Z,1.20
2023-03-29T02:29:05.537Z,1.30
2023-03-29T02:31:32.045Z,1.88
2023-03-29T02:34:02.330Z,1.27
2023-03-29T02:36:38.130Z,1.60
2023-03-29T02:41:32.747Z,1.75
2023-03-29T02:44:00.305Z,1.30
2023-03-29T02:46:27.494Z,1.73
2023-03-29T02:48:54.651Z,1.77
2023-03-29T02:51:23.512Z,1.63
2023-03-29T02:54:00.066Z,1.27
2023-03-29T02:56:26.612Z,1.55
2023-03-29T02:58:53.013Z,1.52
2023-03-29T03:01:20.479Z,1.45
2023-03-29T03:03:50.674Z,1.30
2023-03-29T03:06:18.178Z,1.10
2023-03-29T03:08:44.655Z,1.73
2023-03-29T03:11:11.066Z,1.80
2023-03-29T03:13:37.648Z,1.45
2023-03-29T03:16:04.265Z,1.33
2023-03-29T03:18:30.819Z,1.50
2023-03-29T03:20:58.986Z,1.35
2023-03-29T03:23:25.603Z,1.52
2023-03-29T03:25:52.828Z,1.45
2023-03-29T03:28:19.719Z,1.33
2023-03-29T03:30:46.116Z,1.33
2023-03-29T03:33:26.781Z,1.30
2023-03-29T03:36:12.056Z,1.70
2023-03-29T03:38:43.843Z,1.40
2023-03-29T03:41:10.404Z,1.42
2023-03-29T03:43:36.916Z,1.63
2023-03-29T03:46:03.434Z,1.38
2023-03-29T03:48:30.381Z,1.38
2023-03-29T03:51:05.386Z,1.63
2023-03-29T03:53:34.958Z,1.30
2023-03-29T03:56:13.866Z,1.33
2023-03-29T03:58:59.159Z,1.45
2023-03-29T04:01:28.012Z,2.00
2023-03-29T04:04:04.516Z,2.10
2023-03-29T04:06:32.447Z,1.98
2023-03-29T04:09:18.025Z,1.77
2023-03-29T04:11:52.926Z,2.15
2023-03-29T04:14:20.606Z,1.75
2023-03-29T04:17:05.601Z,2.22
2023-03-29T04:20:05.562Z,2.00
2023-03-29T04:22:33.221Z,1.95
2023-03-29T04:24:59.644Z,2.15
2023-03-29T04:27:34.887Z,1.92
2023-03-29T04:30:07.126Z,1.90
2023-03-29T04:32:52.476Z,1.90
2023-03-29T04:35:19.352Z,2.47
2023-03-29T04:37:45.962Z,2.00
2023-03-29T04:40:14.979Z,1.98
2023-03-29T04:42:52.642Z,1.90
2023-03-29T04:45:20.031Z,1.70
2023-03-29T04:48:05.500Z,2.03
2023-03-29T04:50:32.188Z,1.90
2023-03-29T04:53:00.232Z,2.05
2023-03-29T04:55:28.009Z,2.47
2023-03-29T04:57:59.880Z,1.90
2023-03-29T05:00:34.053Z,1.95
2023-03-29T05:03:18.932Z,2.85
2023-03-29T05:06:07.233Z,1.73
2023-03-29T05:08:38.918Z,1.90
2023-03-29T05:11:16.552Z,2.50
2023-03-29T05:13:43.469Z,2.28
2023-03-29T05:16:11.080Z,2.08
2023-03-29T05:18:37.811Z,1.83
2023-03-29T05:21:04.804Z,1.92
2023-03-29T05:23:34.167Z,2.50
2023-03-29T05:26:08.101Z,2.13
2023-03-29T05:28:35.124Z,2.35
2023-03-29T05:31:04.341Z,2.40
2023-03-29T05:33:33.631Z,2.47
2023-03-29T05:36:08.061Z,2.30
2023-03-29T05:38:38.126Z,2.53
2023-03-29T05:41:06.149Z,2.20
2023-03-29T05:43:58.195Z,2.70
2023-03-29T05:46:25.611Z,2.70
2023-03-29T05:48:54.201Z,2.85
2023-03-29T05:51:26.452Z,2.28
2023-03-29T05:53:54.960Z,3.03
2023-03-29T05:56:22.341Z,2.50
2023-03-29T05:58:50.894Z,2.55
2023-03-29T06:01:18.390Z,2.60
2023-03-29T06:03:57.315Z,2.55
2023-03-29T06:06:29.343Z,2.85
2023-03-29T06:08:57.379Z,3.30
2023-03-29T06:11:31.474Z,2.65
2023-03-29T06:14:23.176Z,2.85
2023-03-29T06:16:55.260Z,2.75
2023-03-29T06:19:22.589Z,2.60
2023-03-29T06:21:49.864Z,3.13
2023-03-29T06:24:21.987Z,3.05
2023-03-29T06:26:54.378Z,3.25
2023-03-29T06:29:21.191Z,2.75
2023-03-29T06:31:48.107Z,2.58
2023-03-29T06:34:36.669Z,2.90
2023-03-29T06:37:25.339Z,2.42
2023-03-29T06:40:01.382Z,2.85
2023-03-29T06:42:35.651Z,2.95
2023-03-29T06:45:29.479Z,2.90
2023-03-29T06:47:57.223Z,2.88
2023-03-29T06:50:23.794Z,2.83
2023-03-29T06:53:10.505Z,2.45
2023-03-29T06:55:38.557Z,2.63
2023-03-29T06:58:23.347Z,2.72
2023-03-29T07:00:49.925Z,2.95
2023-03-29T07:03:24.529Z,2.70
2023-03-29T07:06:01.124Z,2.97
2023-03-29T07:08:31.507Z,2.60
2023-03-29T07:11:01.406Z,2.90
2023-03-29T07:13:48.813Z,2.85
2023-03-29T07:16:19.191Z,2.33
2023-03-29T07:19:06.109Z,2.60
2023-03-29T07:21:55.158Z,2.63
2023-03-29T07:24:29.544Z,2.20
2023-03-29T07:27:04.184Z,2.80
2023-03-29T07:29:32.414Z,2.85
2023-03-29T07:31:58.944Z,3.00
2023-03-29T07:34:43.454Z,3.25
2023-03-29T07:37:18.559Z,3.03
2023-03-29T07:39:45.978Z,2.80
2023-03-29T07:42:32.675Z,2.72
2023-03-29T07:44:59.761Z,2.60
2023-03-29T07:47:32.026Z,2.85
2023-03-29T07:49:59.113Z,2.67
2023-03-29T07:52:27.984Z,2.78
2023-03-29T07:54:55.556Z,2.67
2023-03-29T07:57:32.731Z,2.33
2023-03-29T07:59:59.414Z,2.85
2023-03-29T08:02:29.678Z,3.10
2023-03-29T08:05:01.606Z,2.92
2023-03-29T08:07:54.287Z,2.42
2023-03-29T08:10:29.170Z,2.72
2023-03-29T08:13:27.772Z,3.10
2023-03-29T08:16:14.559Z,2.45
2023-03-29T08:18:48.632Z,2.58
2023-03-29T08:21:15.731Z,2.65
2023-03-29T08:23:46.924Z,3.13
2023-03-29T08:26:21.236Z,2.53
2023-03-29T08:28:49.248Z,2.75
2023-03-29T08:31:18.518Z,2.70
2023-03-29T08:33:45.524Z,2.22
2023-03-29T08:36:30.694Z,2.60
2023-03-29T08:39:03.196Z,3.15
2023-03-29T08:41:29.896Z,2.53
2023-03-29T08:44:15.459Z,2.45
2023-03-29T08:47:23.459Z,2.30
2023-03-29T08:49:52.079Z,2.92
2023-03-29T08:52:38.437Z,2.20
2023-03-29T08:55:32.467Z,2.25
2023-03-29T08:58:24.261Z,2.30
2023-03-29T09:00:53.894Z,2.28
2023-03-29T09:03:25.292Z,2.85
2023-03-29T09:05:59.418Z,2.13
2023-03-29T09:08:26.666Z,2.70
2023-03-29T09:11:13.613Z,2.72
2023-03-29T09:13:44.017Z,3.28
2023-03-29T09:16:24.558Z,2.63
2023-03-29T09:19:17.520Z,2.28
2023-03-29T09:21:49.316Z,2.40
2023-03-29T09:24:28.100Z,2.83
2023-03-29T09:27:03.934Z,2.78
2023-03-29T09:29:43.797Z,2.50
2023-03-29T09:32:16.835Z,2.40
2023-03-29T09:34:44.692Z,2.83
2023-03-29T09:37:25.656Z,2.60
2023-03-29T09:39:53.101Z,3.30
2023-03-29T09:42:23.105Z,2.50
2023-03-29T09:44:54.499Z,2.35
2023-03-29T09:47:37.818Z,2.90
2023-03-29T09:50:46.703Z,2.78
2023-03-29T09:53:18.361Z,2.85
2023-03-29T09:55:52.798Z,2.97
2023-03-29T09:58:27.631Z,3.00
2023-03-29T10:00:58.052Z,3.08
2023-03-29T10:03:26.001Z,3.25
2023-03-29T10:06:14.453Z,2.63
2023-03-29T10:08:47.608Z,4.20
2023-03-29T10:11:19.910Z,3.67
2023-03-29T10:13:47.649Z,2.30
2023-03-29T10:16:21.545Z,3.15
2023-03-29T10:18:50.135Z,2.90
2023-03-29T10:21:17.679Z,3.50
2023-03-29T10:23:44.243Z,2.92
2023-03-29T10:26:16.586Z,5.50
2023-03-29T10:28:43.200Z,3.05
2023-03-29T10:31:17.949Z,3.28
2023-03-29T10:33:50.447Z,3.42
2023-03-29T10:36:17.031Z,2.85
2023-03-29T10:38:43.976Z,2.75
2023-03-29T10:41:12.028Z,4.10
2023-03-29T10:43:39.532Z,2.60
2023-03-29T10:46:23.441Z,2.50
2023-03-29T10:48:51.907Z,2.20
2023-03-29T10:51:19.186Z,2.08
2023-03-29T10:53:45.715Z,2.47
2023-03-29T10:56:16.172Z,2.40
2023-03-29T10:58:51.678Z,2.58
2023-03-29T11:03:50.733Z,2.83
2023-03-29T11:06:30.701Z,2.13
2023-03-29T11:08:59.229Z,2.65
2023-03-29T11:11:44.403Z,2.88
2023-03-29T11:14:11.365Z,2.33
2023-03-29T11:16:46.738Z,2.50
2023-03-29T11:19:24.872Z,3.33
2023-03-29T11:21:54.502Z,2.92
2023-03-29T11:24:23.868Z,2.17
2023-03-29T11:27:02.631Z,2.90
2023-03-29T11:29:38.577Z,2.65
2023-03-29T11:32:14.513Z,2.60
2023-03-29T11:34:53.179Z,2.42
2023-03-29T11:37:32.969Z,2.40
2023-03-29T11:39:59.524Z,1.92
2023-03-29T11:42:29.308Z,3.30
2023-03-29T11:44:57.594Z,2.30
2023-03-29T11:47:28.771Z,2.50
2023-03-29T11:50:00.645Z,2.72
2023-03-29T11:52:33.616Z,2.28
2023-03-29T11:55:03.330Z,2.33
2023-03-29T11:57:39.082Z,2.83
2023-03-29T12:00:24.065Z,2.65
2023-03-29T12:02:59.624Z,2.87
2023-03-29T12:05:26.214Z,2.50
2023-03-29T12:07:56.565Z,2.70
2023-03-29T12:10:24.868Z,2.58
2023-03-29T12:12:59.951Z,2.78
2023-03-29T12:15:28.634Z,2.58
2023-03-29T12:18:05.033Z,3.33
2023-03-29T12:20:34.763Z,2.40
2023-03-29T12:23:03.070Z,2.60
2023-03-29T12:25:31.539Z,2.55
2023-03-29T12:28:27.544Z,3.00
2023-03-29T12:30:57.098Z,2.97
2023-03-29T12:33:32.401Z,2.92
2023-03-29T12:36:24.684Z,2.60
2023-03-29T12:39:23.962Z,3.25
2023-03-29T12:44:58.780Z,3.60
2023-03-29T12:47:32.106Z,3.00
2023-03-29T12:49:59.544Z,3.15
2023-03-29T12:52:32.343Z,3.22
2023-03-29T12:55:01.281Z,3.00
2023-03-29T12:57:28.016Z,3.60
2023-03-29T12:59:54.897Z,3.70
2023-03-29T13:02:21.684Z,3.08
2023-03-29T13:05:00.211Z,3.33
2023-03-29T13:07:43.448Z,2.92
2023-03-29T13:10:25.268Z,3.35
2023-03-29T13:12:51.770Z,3.00
2023-03-29T13:15:18.190Z,3.28
2023-03-29T13:17:57.001Z,3.00
2023-03-29T13:20:38.818Z,3.25
2023-03-29T13:23:11.269Z,3.30
2023-03-29T13:25:46.435Z,2.90
2023-03-29T13:28:12.970Z,3.28
2023-03-29T13:30:45.121Z,2.30
2023-03-29T13:33:11.575Z,2.80
2023-03-29T13:35:51.609Z,2.67
2023-03-29T13:38:22.958Z,2.78
2023-03-29T13:40:52.756Z,2.97
2023-03-29T13:43:19.231Z,2.20
2023-03-29T13:45:57.939Z,2.60
2023-03-29T13:48:28.957Z,2.75
2023-03-29T13:51:15.838Z,2.33
2023-03-29T13:54:01.270Z,2.55
2023-03-29T13:56:40.565Z,2.30
2023-03-29T13:59:13.261Z,3.05
2023-03-29T14:01:43.399Z,2.67
2023-03-29T14:04:13.257Z,2.72
2023-03-29T14:06:40.948Z,2.05
2023-03-29T14:09:08.572Z,2.50
2023-03-29T14:11:36.100Z,2.35
2023-03-29T14:14:05.092Z,2.85
2023-03-29T14:16:33.022Z,2.80
2023-03-29T14:19:00.182Z,2.60
2023-03-29T14:21:26.604Z,2.10
2023-03-29T14:24:03.136Z,1.88
2023-03-29T14:26:30.703Z,2.42
2023-03-29T14:28:57.706Z,1.88
2023-03-29T14:31:25.697Z,2.38
2023-03-29T14:33:56.492Z,1.80
2023-03-29T14:36:23.553Z,1.98
2023-03-29T14:38:51.418Z,2.10
2023-03-29T14:41:18.416Z,1.70
2023-03-29T14:43:46.292Z,2.20
2023-03-29T14:46:14.176Z,2.25
2023-03-29T14:48:40.703Z,2.10
2023-03-29T14:51:07.481Z,1.30
2023-03-29T14:53:34.517Z,1.52
2023-03-29T14:56:01.940Z,1.67
2023-03-29T14:58:31.713Z,1.77
2023-03-29T15:00:58.236Z,1.80
2023-03-29T15:03:27.914Z,1.65
2023-03-29T15:05:57.118Z,1.83
2023-03-29T15:08:29.167Z,1.70
2023-03-29T15:10:55.929Z,1.50
2023-03-29T15:13:24.433Z,1.58
2023-03-29T15:15:52.668Z,1.48
2023-03-29T15:18:23.341Z,1.42
2023-03-29T15:20:51.289Z,1.80
2023-03-29T15:23:17.749Z,1.50
2023-03-29T15:25:51.737Z,1.60
2023-03-29T15:28:24.485Z,1.58
2023-03-29T15:31:06.825Z,1.15
2023-03-29T15:33:38.296Z,1.58
2023-03-29T15:36:06.420Z,1.63
2023-03-29T15:38:43.351Z,1.38
2023-03-29T15:41:11.419Z,2.17
2023-03-29T15:43:37.793Z,1.60
2023-03-29T15:46:04.945Z,1.50
2023-03-29T15:48:33.445Z,1.40
2023-03-29T15:51:03.804Z,1.60
2023-03-29T15:53:32.129Z,1.60
2023-03-29T15:55:59.715Z,1.63
2023-03-29T15:58:27.898Z,1.67
2023-03-29T16:00:56.671Z,1.50
2023-03-29T16:03:23.808Z,1.63
2023-03-29T16:05:50.288Z,1.20
2023-03-29T16:08:16.700Z,2.55
2023-03-29T16:10:43.850Z,1.23
2023-03-29T16:13:12.777Z,1.38
2023-03-29T16:15:40.290Z,1.33
2023-03-29T16:18:07.157Z,1.38
2023-03-29T16:20:33.680Z,1.00
2023-03-29T16:23:00.131Z,1.23
2023-03-29T16:25:27.711Z,1.45
2023-03-29T16:27:54.168Z,1.27
2023-03-29T16:30:20.670Z,1.05
2023-03-29T16:32:47.196Z,1.13
2023-03-29T16:35:16.981Z,1.20
2023-03-29T16:37:43.442Z,1.00
2023-03-29T16:40:12.292Z,1.13
2023-03-29T16:42:38.910Z,1.65
2023-03-29T16:45:06.469Z,1.13
2023-03-29T16:47:32.975Z,1.20
2023-03-29T16:49:59.495Z,1.40
2023-03-29T16:52:26.312Z,1.23
2023-03-29T16:54:52.902Z,1.33
2023-03-29T16:57:19.403Z,1.40
2023-03-29T16:59:47.595Z,1.30
2023-03-29T17:02:14.149Z,1.33
2023-03-29T17:04:40.623Z,1.27
2023-03-29T17:07:07.446Z,1.40
2023-03-29T17:09:33.930Z,1.23
2023-03-29T17:12:00.474Z,1.08
2023-03-29T17:14:26.938Z,1.48
2023-03-29T17:16:53.594Z,1.70
2023-03-29T17:19:19.969Z,1.13
2023-03-29T17:21:46.423Z,1.67
2023-03-29T17:24:12.868Z,1.45
2023-03-29T17:26:39.779Z,1.20
2023-03-29T17:29:06.188Z,1.00
2023-03-29T17:31:34.684Z,1.70
2023-03-29T17:34:01.158Z,1.80
2023-03-29T17:36:28.706Z,1.48
2023-03-29T17:38:55.334Z,1.80
2023-03-29T17:41:22.754Z,1.40
2023-03-29T17:43:50.768Z,1.58
2023-03-29T17:46:17.970Z,2.20
2023-03-29T17:48:45.782Z,2.70
2023-03-29T17:51:12.251Z,2.65
2023-03-29T17:53:38.631Z,2.55
2023-03-29T17:56:06.453Z,2.70
2023-03-29T17:58:32.827Z,2.80
2023-03-29T18:00:59.368Z,3.05
2023-03-29T18:03:26.131Z,3.40
2023-03-29T18:05:54.112Z,2.30
2023-03-29T18:08:20.636Z,2.95
2023-03-29T18:10:47.133Z,3.90
2023-03-29T18:13:14.595Z,3.50
2023-03-29T18:15:41.474Z,2.92
2023-03-29T18:18:08.044Z,3.35
2023-03-29T18:20:34.600Z,3.38
2023-03-29T18:23:00.997Z,2.78
2023-03-29T18:25:27.548Z,2.38
2023-03-29T18:27:53.935Z,2.60
2023-03-29T18:30:20.339Z,2.92
2023-03-29T18:32:46.824Z,3.47
2023-03-29T18:35:13.306Z,2.42
2023-03-29T18:37:39.770Z,3.05
2023-03-29T18:40:09.955Z,2.65
2023-03-29T18:42:36.530Z,2.83
2023-03-29T18:45:04.203Z,2.38
2023-03-29T18:47:30.750Z,2.00
2023-03-29T18:49:57.628Z,1.58
2023-03-29T18:52:24.062Z,1.52
2023-03-29T18:54:50.488Z,1.60
2023-03-29T18:57:16.976Z,1.80
2023-03-29T18:59:43.463Z,1.88
2023-03-29T19:02:10.008Z,1.60
2023-03-29T19:04:36.471Z,1.50
2023-03-29T19:07:03.451Z,1.77
2023-03-29T19:09:29.977Z,1.65
2023-03-29T19:11:56.444Z,1.75
2023-03-29T19:14:25.084Z,1.40
2023-03-29T19:16:51.907Z,1.58
2023-03-29T19:19:19.131Z,1.67
2023-03-29T19:21:47.310Z,1.20
2023-03-29T19:24:14.080Z,1.25
2023-03-29T19:26:41.016Z,1.02
2023-03-29T19:29:07.598Z,1.50
2023-03-29T19:31:35.835Z,1.23
2023-03-29T19:34:02.350Z,1.25
2023-03-29T19:36:28.792Z,1.30
2023-03-29T19:38:55.629Z,1.60
2023-03-29T19:41:22.326Z,1.20
2023-03-29T19:43:48.791Z,1.70
2023-03-29T19:46:15.778Z,1.42
2023-03-29T19:48:42.325Z,1.40
2023-03-29T19:51:08.978Z,1.67
2023-03-29T19:53:38.407Z,1.55
2023-03-29T19:56:06.410Z,1.58
2023-03-29T19:58:33.071Z,1.42
2023-03-29T20:00:59.570Z,1.70
2023-03-29T20:03:29.125Z,1.63
2023-03-29T20:05:56.435Z,1.73
2023-03-29T20:08:24.584Z,1.65
2023-03-29T20:11:02.160Z,1.55
2023-03-29T20:13:38.202Z,1.50
2023-03-29T20:16:09.024Z,1.60
2023-03-29T20:18:38.153Z,1.52
2023-03-29T20:21:05.451Z,1.48
2023-03-29T20:23:32.156Z,1.88
2023-03-29T20:25:58.697Z,1.80
2023-03-29T20:28:25.613Z,1.73
2023-03-29T20:30:52.964Z,1.50
2023-03-29T20:33:20.527Z,1.63
2023-03-29T20:35:47.357Z,1.50
2023-03-29T20:38:13.979Z,1.80
2023-03-29T20:40:44.769Z,1.80
2023-03-29T20:43:13.230Z,1.27
2023-03-29T20:45:52.022Z,1.70
2023-03-29T20:48:22.736Z,1.52
2023-03-29T20:50:49.280Z,1.50
2023-03-29T20:53:16.230Z,2.08
2023-03-29T20:55:42.694Z,2.42
2023-03-29T20:58:09.443Z,3.10
2023-03-29T21:00:37.473Z,2.67
2023-03-29T21:03:04.109Z,3.58
2023-03-29T21:05:32.099Z,3.72
2023-03-29T21:07:58.988Z,3.03
2023-03-29T21:10:25.845Z,1.95
2023-03-29T21:12:52.279Z,3.00
2023-03-29T21:15:19.701Z,2.63
2023-03-29T21:17:46.555Z,2.53
2023-03-29T21:20:14.039Z,2.20
2023-03-29T21:22:42.851Z,3.08
2023-03-29T21:25:10.464Z,2.30
2023-03-29T21:27:37.360Z,2.13
2023-03-29T21:30:04.668Z,2.72
2023-03-29T21:32:31.381Z,2.28
2023-03-29T21:34:57.891Z,1.90
2023-03-29T21:37:24.390Z,1.85
2023-03-29T21:39:50.840Z,1.98
2023-03-29T21:42:17.457Z,1.70
2023-03-29T21:44:44.302Z,1.90
2023-03-29T21:47:10.742Z,1.92
2023-03-29T21:49:37.522Z,1.50
2023-03-29T21:52:03.966Z,1.73
2023-03-29T21:54:30.361Z,1.45
2023-03-29T21:56:56.861Z,2.17
2023-03-29T21:59:23.275Z,1.95
2023-03-29T22:01:49.755Z,2.30
2023-03-29T22:04:29.181Z,2.42
2023-03-29T22:09:28.992Z,2.10
2023-03-29T22:11:55.402Z,1.40
2023-03-29T22:14:21.936Z,2.25
2023-03-29T22:16:48.509Z,2.65
2023-03-29T22:19:15.009Z,2.50
2023-03-29T22:21:41.494Z,2.33
2023-03-29T22:24:07.960Z,1.85
2023-03-29T22:26:34.469Z,1.85
2023-03-29T22:29:01.339Z,2.38
2023-03-29T22:31:28.736Z,1.80
2023-03-29T22:33:55.588Z,1.75
2023-03-29T22:36:23.262Z,1.48
2023-03-29T22:38:50.128Z,1.55
2023-03-29T22:41:17.440Z,1.48
2023-03-29T22:43:44.021Z,2.22
2023-03-29T22:46:11.680Z,1.42
2023-03-29T22:48:38.444Z,1.40
2023-03-29T22:51:05.746Z,1.30
2023-03-29T22:53:32.608Z,1.30
2023-03-29T22:55:58.999Z,1.73
2023-03-29T22:58:25.579Z,1.83
2023-03-29T23:00:52.384Z,1.80
2023-03-29T23:03:18.786Z,1.60
2023-03-29T23:05:52.708Z,1.55
2023-03-29T23:08:19.192Z,1.73
2023-03-29T23:10:46.165Z,1.63
2023-03-29T23:13:13.439Z,1.40
2023-03-29T23:15:45.540Z,1.50
2023-03-29T23:18:20.914Z,1.10
2023-03-29T23:20:48.447Z,1.77
2023-03-29T23:23:15.423Z,1.38
2023-03-29T23:25:45.658Z,1.50
2023-03-29T23:28:12.615Z,1.27
2023-03-29T23:30:39.018Z,1.75
2023-03-29T23:33:06.078Z,1.65
2023-03-29T23:35:32.560Z,0.80
2023-03-29T23:37:59.624Z,1.35
2023-03-29T23:40:26.869Z,1.55
2023-03-29T23:42:59.160Z,1.73
2023-03-29T23:45:29.057Z,1.65
2023-03-29T23:47:55.934Z,1.60
2023-03-29T23:50:22.581Z,1.38
2023-03-29T23:52:51.368Z,1.50
2023-03-29T23:55:17.823Z,1.30
2023-03-29T23:57:44.350Z,1.10
